createdAt,value
2023-02-25T00:02:40.199Z,9.00
2023-02-25T00:05:43.096Z,9.10
2023-02-25T00:08:46.386Z,9.10
2023-02-25T00:11:48.810Z,9.10
2023-02-25T00:14:58.042Z,9.10
2023-02-25T00:18:00.116Z,9.10
2023-02-25T00:21:07.097Z,9.00
2023-02-25T00:24:16.322Z,9.00
2023-02-25T00:27:19.243Z,9.10
2023-02-25T00:30:23.250Z,9.00
2023-02-25T00:33:25.576Z,9.00
2023-02-25T00:36:28.026Z,9.00
2023-02-25T00:39:42.703Z,9.00
2023-02-25T00:42:46.292Z,9.00
2023-02-25T00:45:48.397Z,9.00
2023-02-25T00:48:51.141Z,8.90
2023-02-25T00:51:53.486Z,8.90
2023-02-25T00:54:55.648Z,8.80
2023-02-25T00:57:59.158Z,8.80
2023-02-25T01:01:02.038Z,8.70
2023-02-25T01:04:08.868Z,8.70
2023-02-25T01:07:11.536Z,8.70
2023-02-25T01:10:15.651Z,8.80
2023-02-25T01:13:18.056Z,8.80
2023-02-25T01:16:24.706Z,8.70
2023-02-25T01:19:29.161Z,8.70
2023-02-25T01:22:31.305Z,8.60
2023-02-25T01:25:33.535Z,8.60
2023-02-25T01:28:35.622Z,8.60
2023-02-25T01:31:38.460Z,8.50
2023-02-25T01:34:49.895Z,8.60
2023-02-25T01:37:53.557Z,8.60
2023-02-25T01:41:00.200Z,8.50
2023-02-25T01:44:17.796Z,8.50
2023-02-25T01:47:20.949Z,8.50
2023-02-25T01:50:29.242Z,8.60
2023-02-25T01:53:35.628Z,8.40
2023-02-25T01:56:41.189Z,8.40
2023-02-25T01:59:44.067Z,8.40
2023-02-25T02:02:49.734Z,8.40
2023-02-25T02:06:15.399Z,8.30
2023-02-25T02:09:24.314Z,8.30
2023-02-25T02:12:31.077Z,8.30
2023-02-25T02:15:39.347Z,8.20
2023-02-25T02:18:47.432Z,8.20
2023-02-25T02:22:15.594Z,8.20
2023-02-25T02:25:48.315Z,8.20
2023-02-25T02:29:17.350Z,8.20
2023-02-25T02:32:48.323Z,8.20
2023-02-25T02:36:13.148Z,8.20
2023-02-25T02:39:27.094Z,8.10
2023-02-25T02:43:05.473Z,8.10
2023-02-25T02:46:23.612Z,8.10
2023-02-25T02:49:36.436Z,8.00
2023-02-25T02:52:42.952Z,8.00
2023-02-25T02:55:51.829Z,8.00
2023-02-25T02:58:59.378Z,7.90
2023-02-25T03:02:08.912Z,7.90
2023-02-25T03:05:17.378Z,7.90
2023-02-25T03:08:28.960Z,7.80
2023-02-25T03:11:31.545Z,7.80
2023-02-25T03:14:33.750Z,7.80
2023-02-25T03:17:56.047Z,7.80
2023-02-25T03:21:00.837Z,7.70
2023-02-25T03:24:05.805Z,7.70
2023-02-25T03:27:35.307Z,7.70
2023-02-25T03:31:21.836Z,7.80
2023-02-25T03:34:36.212Z,7.80
2023-02-25T03:37:40.904Z,7.80
2023-02-25T03:40:44.243Z,7.80
2023-02-25T03:43:53.018Z,7.80
2023-02-25T03:46:56.625Z,7.80
2023-02-25T03:50:08.749Z,7.80
2023-02-25T03:53:12.022Z,7.70
2023-02-25T03:56:14.359Z,7.80
2023-02-25T03:59:17.472Z,7.70
2023-02-25T04:02:21.339Z,7.70
2023-02-25T04:05:27.882Z,7.70
2023-02-25T04:08:30.013Z,7.60
2023-02-25T04:11:32.944Z,7.60
2023-02-25T04:14:42.864Z,7.70
2023-02-25T04:17:45.809Z,7.70
2023-02-25T04:20:48.002Z,7.70
2023-02-25T04:23:50.132Z,7.80
2023-02-25T04:26:58.620Z,7.80
2023-02-25T04:30:00.883Z,7.90
2023-02-25T04:33:03.570Z,8.00
2023-02-25T04:36:06.326Z,8.00
2023-02-25T04:39:08.408Z,8.10
2023-02-25T04:42:10.550Z,8.20
2023-02-25T04:45:14.323Z,8.30
2023-02-25T04:48:16.442Z,8.30
2023-02-25T04:51:18.836Z,8.30
2023-02-25T04:54:21.590Z,8.40
2023-02-25T04:57:23.944Z,8.40
2023-02-25T05:00:27.160Z,8.40
2023-02-25T05:03:29.979Z,8.40
2023-02-25T05:06:32.653Z,8.30
2023-02-25T05:09:37.120Z,8.20
2023-02-25T05:12:45.572Z,8.10
2023-02-25T05:15:59.941Z,8.00
2023-02-25T05:19:05.071Z,7.90
2023-02-25T05:22:09.319Z,7.90
2023-02-25T05:25:11.972Z,7.80
2023-02-25T05:28:14.137Z,7.70
2023-02-25T05:31:16.480Z,7.70
2023-02-25T05:34:18.736Z,7.70
2023-02-25T05:37:21.074Z,7.60
2023-02-25T05:40:23.238Z,7.60
2023-02-25T05:43:25.452Z,7.60
2023-02-25T05:46:28.074Z,7.50
2023-02-25T05:49:30.285Z,7.50
2023-02-25T05:52:32.535Z,7.40
2023-02-25T05:55:34.731Z,7.40
2023-02-25T05:58:37.339Z,7.40
2023-02-25T06:01:39.766Z,7.30
2023-02-25T06:04:42.129Z,7.30
2023-02-25T06:07:44.338Z,7.30
2023-02-25T06:10:46.489Z,7.30
2023-02-25T06:13:53.477Z,7.30
2023-02-25T06:16:57.123Z,7.30
2023-02-25T06:19:59.370Z,7.30
2023-02-25T06:23:02.631Z,7.30
2023-02-25T06:26:08.024Z,7.30
2023-02-25T06:29:10.747Z,7.20
2023-02-25T06:32:12.952Z,7.20
2023-02-25T06:35:15.139Z,7.20
2023-02-25T06:38:17.289Z,7.20
2023-02-25T06:41:21.603Z,7.20
2023-02-25T06:44:23.774Z,7.10
2023-02-25T06:47:26.049Z,7.10
2023-02-25T06:50:28.321Z,7.10
2023-02-25T06:53:30.478Z,7.10
2023-02-25T06:56:32.858Z,7.10
2023-02-25T06:59:36.065Z,7.10
2023-02-25T07:02:38.515Z,7.10
2023-02-25T07:05:40.878Z,7.10
2023-02-25T07:08:42.957Z,7.10
2023-02-25T07:11:45.120Z,7.10
2023-02-25T07:14:47.904Z,7.10
2023-02-25T07:17:50.070Z,7.10
2023-02-25T07:20:52.164Z,7.10
2023-02-25T07:23:54.330Z,7.20
2023-02-25T07:26:56.584Z,7.20
2023-02-25T07:30:00.724Z,7.40
2023-02-25T07:33:03.162Z,7.60
2023-02-25T07:36:05.655Z,8.30
2023-02-25T07:39:11.338Z,9.10
2023-02-25T07:42:13.498Z,10.00
2023-02-25T07:45:15.617Z,10.90
2023-02-25T07:48:17.799Z,11.60
2023-02-25T07:51:22.769Z,12.50
2023-02-25T07:54:25.134Z,12.60
2023-02-25T07:57:28.934Z,12.20
2023-02-25T08:00:31.528Z,11.70
2023-02-25T08:03:33.611Z,11.40
2023-02-25T08:06:38.354Z,11.20
2023-02-25T08:09:42.043Z,11.20
2023-02-25T08:12:44.666Z,11.10
2023-02-25T08:15:46.988Z,11.10
2023-02-25T08:18:49.501Z,11.20
2023-02-25T08:21:51.656Z,12.80
2023-02-25T08:24:54.034Z,14.30
2023-02-25T08:27:56.189Z,15.40
2023-02-25T08:30:59.443Z,16.40
2023-02-25T08:34:01.788Z,17.10
2023-02-25T08:37:03.952Z,18.10
2023-02-25T08:40:10.670Z,18.80
2023-02-25T08:43:13.039Z,19.20
2023-02-25T08:46:15.272Z,17.70
2023-02-25T08:49:17.412Z,16.80
2023-02-25T08:52:20.348Z,15.80
2023-02-25T08:55:24.919Z,15.50
2023-02-25T08:58:26.998Z,16.30
2023-02-25T09:01:45.121Z,17.40
2023-02-25T09:04:47.528Z,18.60
2023-02-25T09:07:49.650Z,18.30
2023-02-25T09:10:51.868Z,19.70
2023-02-25T09:13:54.483Z,20.50
2023-02-25T09:16:56.683Z,22.30
2023-02-25T09:20:01.388Z,22.40
2023-02-25T09:23:05.174Z,22.10
2023-02-25T09:26:07.801Z,23.20
2023-02-25T09:29:10.413Z,23.10
2023-02-25T09:32:20.025Z,22.50
2023-02-25T09:35:22.434Z,22.30
2023-02-25T09:38:24.540Z,22.60
2023-02-25T09:41:39.094Z,22.20
2023-02-25T09:44:49.370Z,22.10
2023-02-25T09:47:58.392Z,21.80
2023-02-25T09:51:23.683Z,21.20
2023-02-25T09:54:37.728Z,22.10
2023-02-25T09:57:43.989Z,22.00
2023-02-25T10:00:55.528Z,22.10
2023-02-25T10:04:24.268Z,22.30
2023-02-25T10:07:42.438Z,22.70
2023-02-25T10:11:07.422Z,22.60
2023-02-25T10:14:46.477Z,21.90
2023-02-25T10:18:07.233Z,21.00
2023-02-25T10:21:27.043Z,20.20
2023-02-25T10:24:40.188Z,20.20
2023-02-25T10:27:53.774Z,19.60
2023-02-25T10:31:00.026Z,18.90
2023-02-25T10:34:21.739Z,18.40
2023-02-25T10:37:38.266Z,17.80
2023-02-25T10:40:41.508Z,17.10
2023-02-25T10:43:45.561Z,16.70
2023-02-25T10:46:58.670Z,16.30
2023-02-25T10:50:39.209Z,16.50
2023-02-25T10:53:57.127Z,16.90
2023-02-25T10:57:08.492Z,17.10
2023-02-25T11:00:34.822Z,17.70
2023-02-25T11:03:49.087Z,18.10
2023-02-25T11:06:51.939Z,18.10
2023-02-25T11:10:11.239Z,17.80
2023-02-25T11:13:29.192Z,17.50
2023-02-25T11:16:41.882Z,17.00
2023-02-25T11:19:47.805Z,16.60
2023-02-25T11:22:56.744Z,16.30
2023-02-25T11:25:59.679Z,15.80
2023-02-25T11:29:14.207Z,15.40
2023-02-25T11:32:20.647Z,14.80
2023-02-25T11:35:32.354Z,14.60
2023-02-25T11:38:36.132Z,14.50
2023-02-25T11:41:38.399Z,14.50
2023-02-25T11:44:45.720Z,16.40
2023-02-25T11:47:49.658Z,18.70
2023-02-25T11:51:06.439Z,20.70
2023-02-25T11:54:08.650Z,22.30
2023-02-25T11:57:38.211Z,22.40
2023-02-25T12:00:47.620Z,20.90
2023-02-25T12:04:24.218Z,19.30
2023-02-25T12:07:29.374Z,18.50
2023-02-25T12:11:01.005Z,17.60
2023-02-25T12:14:45.083Z,17.00
2023-02-25T12:18:08.872Z,17.30
2023-02-25T12:21:38.929Z,17.50
2023-02-25T12:24:41.393Z,17.50
2023-02-25T12:27:58.303Z,17.20
2023-02-25T12:31:10.005Z,16.40
2023-02-25T12:34:26.773Z,16.40
2023-02-25T12:37:44.125Z,16.30
2023-02-25T12:41:07.772Z,16.10
2023-02-25T12:44:29.025Z,16.00
2023-02-25T12:47:41.960Z,16.00
2023-02-25T12:51:21.824Z,16.00
2023-02-25T12:54:42.800Z,16.20
2023-02-25T12:57:59.739Z,16.50
2023-02-25T13:01:41.776Z,16.90
2023-02-25T13:05:23.398Z,17.00
2023-02-25T13:08:50.618Z,17.20
2023-02-25T13:12:17.400Z,17.00
2023-02-25T13:15:40.093Z,16.90
2023-02-25T13:19:13.729Z,16.80
2023-02-25T13:22:24.930Z,16.70
2023-02-25T13:25:54.746Z,16.80
2023-02-25T13:29:18.741Z,16.80
2023-02-25T13:32:31.582Z,16.70
2023-02-25T13:35:50.235Z,17.00
2023-02-25T13:39:28.152Z,17.10
2023-02-25T13:42:51.553Z,17.10
2023-02-25T13:46:06.166Z,17.10
2023-02-25T13:49:35.918Z,17.00
2023-02-25T13:53:11.705Z,16.70
2023-02-25T13:56:32.345Z,16.70
2023-02-25T14:00:11.964Z,16.80
2023-02-25T14:03:23.294Z,16.70
2023-02-25T14:06:25.431Z,16.50
2023-02-25T14:09:38.476Z,16.50
2023-02-25T14:13:04.829Z,16.50
2023-02-25T14:16:31.968Z,16.50
2023-02-25T14:20:06.701Z,16.70
2023-02-25T14:23:40.452Z,16.90
2023-02-25T14:27:04.394Z,17.00
2023-02-25T14:30:15.519Z,17.10
2023-02-25T14:33:35.883Z,17.30
2023-02-25T14:36:41.721Z,17.40
2023-02-25T14:40:10.060Z,17.40
2023-02-25T14:43:34.079Z,17.60
2023-02-25T14:46:43.280Z,17.50
2023-02-25T14:49:59.433Z,17.50
2023-02-25T14:53:17.718Z,17.40
2023-02-25T14:56:47.770Z,17.30
2023-02-25T15:00:23.710Z,17.30
2023-02-25T15:03:47.735Z,17.20
2023-02-25T15:07:00.643Z,17.30
2023-02-25T15:10:25.731Z,17.30
2023-02-25T15:13:30.667Z,17.10
2023-02-25T15:16:42.723Z,17.00
2023-02-25T15:20:09.744Z,16.90
2023-02-25T15:23:17.507Z,16.80
2023-02-25T15:26:22.115Z,16.60
2023-02-25T15:29:33.462Z,16.50
2023-02-25T15:33:11.024Z,16.40
2023-02-25T15:36:18.855Z,16.30
2023-02-25T15:39:42.715Z,16.10
2023-02-25T15:42:57.925Z,16.00
2023-02-25T15:46:09.308Z,16.00
2023-02-25T15:49:17.073Z,16.10
2023-02-25T15:52:51.716Z,16.30
2023-02-25T15:56:05.764Z,16.30
2023-02-25T15:59:08.012Z,16.50
2023-02-25T16:02:33.635Z,16.50
2023-02-25T16:05:36.435Z,16.50
2023-02-25T16:08:45.105Z,16.30
2023-02-25T16:11:56.281Z,16.20
2023-02-25T16:14:59.655Z,16.00
2023-02-25T16:18:24.335Z,15.80
2023-02-25T16:21:44.595Z,15.50
2023-02-25T16:24:56.045Z,15.40
2023-02-25T16:28:29.921Z,15.30
2023-02-25T16:31:36.353Z,15.20
2023-02-25T16:34:57.058Z,15.10
2023-02-25T16:38:34.956Z,15.00
2023-02-25T16:41:39.451Z,14.90
2023-02-25T16:44:48.197Z,14.80
2023-02-25T16:48:04.645Z,14.80
2023-02-25T16:51:25.305Z,14.80
2023-02-25T16:54:38.101Z,14.70
2023-02-25T16:57:40.707Z,14.80
2023-02-25T17:00:52.630Z,14.80
2023-02-25T17:04:26.787Z,14.80
2023-02-25T17:07:31.788Z,14.70
2023-02-25T17:10:47.929Z,14.70
2023-02-25T17:13:54.726Z,14.80
2023-02-25T17:16:57.869Z,14.80
2023-02-25T17:20:05.433Z,14.90
2023-02-25T17:23:13.538Z,14.90
2023-02-25T17:26:17.114Z,14.90
2023-02-25T17:29:20.493Z,14.90
2023-02-25T17:32:29.416Z,14.90
2023-02-25T17:35:33.017Z,14.70
2023-02-25T17:38:38.044Z,14.60
2023-02-25T17:41:43.346Z,14.60
2023-02-25T17:44:47.286Z,14.60
2023-02-25T17:47:49.866Z,14.50
2023-02-25T17:50:54.455Z,14.50
2023-02-25T17:54:01.393Z,14.60
2023-02-25T17:57:14.402Z,14.60
2023-02-25T18:00:32.722Z,14.50
2023-02-25T18:03:46.436Z,14.40
2023-02-25T18:06:48.687Z,14.30
2023-02-25T18:09:53.847Z,14.20
2023-02-25T18:12:56.814Z,14.10
2023-02-25T18:16:29.542Z,14.00
2023-02-25T18:19:46.110Z,13.90
2023-02-25T18:22:53.697Z,13.90
2023-02-25T18:26:16.175Z,13.80
2023-02-25T18:29:19.778Z,13.70
2023-02-25T18:32:22.102Z,13.70
2023-02-25T18:35:25.928Z,13.70
2023-02-25T18:38:30.997Z,13.80
2023-02-25T18:41:33.859Z,13.70
2023-02-25T18:44:36.350Z,13.70
2023-02-25T18:47:38.489Z,13.70
2023-02-25T18:50:42.390Z,13.70
2023-02-25T18:53:44.644Z,13.70
2023-02-25T18:56:46.849Z,13.80
2023-02-25T18:59:49.308Z,13.80
2023-02-25T19:03:00.149Z,13.80
2023-02-25T19:06:03.650Z,13.70
2023-02-25T19:09:06.450Z,13.60
2023-02-25T19:12:14.058Z,13.50
2023-02-25T19:15:18.892Z,13.60
2023-02-25T19:18:21.624Z,13.50
2023-02-25T19:21:24.339Z,13.40
2023-02-25T19:24:26.584Z,13.30
2023-02-25T19:27:31.215Z,13.20
2023-02-25T19:30:38.009Z,13.10
2023-02-25T19:33:40.381Z,13.10
2023-02-25T19:36:42.635Z,13.00
2023-02-25T19:39:45.364Z,12.90
2023-02-25T19:42:49.114Z,12.90
2023-02-25T19:45:52.370Z,12.90
2023-02-25T19:48:54.752Z,12.80
2023-02-25T19:51:57.530Z,12.80
2023-02-25T19:55:01.119Z,12.70
2023-02-25T19:58:03.751Z,12.60
2023-02-25T20:01:09.442Z,12.60
2023-02-25T20:04:16.209Z,12.60
2023-02-25T20:07:18.548Z,12.60
2023-02-25T20:10:22.048Z,12.50
2023-02-25T20:13:24.191Z,12.40
2023-02-25T20:16:26.768Z,12.40
2023-02-25T20:19:32.785Z,12.30
2023-02-25T20:22:36.825Z,12.30
2023-02-25T20:25:39.186Z,12.20
2023-02-25T20:28:42.075Z,12.20
2023-02-25T20:31:45.267Z,12.10
2023-02-25T20:34:49.289Z,12.00
2023-02-25T20:38:14.101Z,12.00
2023-02-25T20:41:17.636Z,11.90
2023-02-25T20:44:20.075Z,11.80
2023-02-25T20:47:36.612Z,11.80
2023-02-25T20:50:39.050Z,11.80
2023-02-25T20:53:41.544Z,11.80
2023-02-25T20:56:44.788Z,11.70
2023-02-25T20:59:48.463Z,11.70
2023-02-25T21:02:50.798Z,11.70
2023-02-25T21:05:53.007Z,11.60
2023-02-25T21:08:55.422Z,11.60
2023-02-25T21:12:01.709Z,11.60
2023-02-25T21:15:06.396Z,11.60
2023-02-25T21:18:10.052Z,11.70
2023-02-25T21:21:14.352Z,11.70
2023-02-25T21:24:18.161Z,11.70
2023-02-25T21:27:20.577Z,11.70
2023-02-25T21:30:24.673Z,11.70
2023-02-25T21:33:27.162Z,11.60
2023-02-25T21:36:30.325Z,11.60
2023-02-25T21:39:32.806Z,11.60
2023-02-25T21:42:36.679Z,11.60
2023-02-25T21:45:39.806Z,11.60
2023-02-25T21:48:45.859Z,11.50
2023-02-25T21:51:48.451Z,11.50
2023-02-25T21:54:52.999Z,11.50
2023-02-25T21:57:55.189Z,11.50
2023-02-25T22:00:57.465Z,11.50
2023-02-25T22:04:00.470Z,11.50
2023-02-25T22:07:02.700Z,11.50
2023-02-25T22:10:05.147Z,11.50
2023-02-25T22:13:11.806Z,11.50
2023-02-25T22:16:18.983Z,11.60
2023-02-25T22:19:21.492Z,11.60
2023-02-25T22:22:23.798Z,11.60
2023-02-25T22:25:26.095Z,11.70
2023-02-25T22:28:31.977Z,11.70
2023-02-25T22:31:35.527Z,11.80
2023-02-25T22:34:38.406Z,11.80
2023-02-25T22:37:42.952Z,11.80
2023-02-25T22:40:45.786Z,11.80
2023-02-25T22:43:49.900Z,11.90
2023-02-25T22:46:56.012Z,11.80
2023-02-25T22:49:58.413Z,11.90
2023-02-25T22:53:00.667Z,11.90
2023-02-25T22:56:04.699Z,11.90
2023-02-25T22:59:08.830Z,11.90
2023-02-25T23:02:11.853Z,11.80
2023-02-25T23:05:14.236Z,11.80
2023-02-25T23:08:17.841Z,11.80
2023-02-25T23:11:23.229Z,11.90
2023-02-25T23:14:25.474Z,11.90
2023-02-25T23:17:27.692Z,12.00
2023-02-25T23:20:32.182Z,12.00
2023-02-25T23:23:38.684Z,12.00
2023-02-25T23:26:42.582Z,12.10
2023-02-25T23:29:44.732Z,12.10
2023-02-25T23:32:47.006Z,12.10
2023-02-25T23:35:49.918Z,12.10
2023-02-25T23:39:00.860Z,12.10
2023-02-25T23:42:03.301Z,12.20
2023-02-25T23:45:07.505Z,12.10
2023-02-25T23:48:10.246Z,12.20
2023-02-25T23:51:13.703Z,12.20
2023-02-25T23:54:20.247Z,12.20
2023-02-25T23:57:22.476Z,12.20
